createdAt,value
2023-01-21T00:00:41.981Z,0.00
2023-01-21T00:01:41.347Z,0.00
2023-01-21T00:02:41.303Z,0.00
2023-01-21T00:03:41.388Z,0.00
2023-01-21T00:04:41.283Z,0.00
2023-01-21T00:05:41.295Z,0.00
2023-01-21T00:06:41.294Z,0.00
2023-01-21T00:07:41.273Z,0.00
2023-01-21T00:08:41.251Z,0.00
2023-01-21T00:09:41.255Z,0.00
2023-01-21T00:10:41.229Z,0.00
2023-01-21T00:11:41.245Z,0.00
2023-01-21T00:12:41.223Z,0.00
2023-01-21T00:13:41.191Z,0.00
2023-01-21T00:14:41.215Z,0.00
2023-01-21T00:15:41.235Z,0.00
2023-01-21T00:16:41.187Z,0.00
2023-01-21T00:17:41.168Z,0.00
2023-01-21T00:18:41.171Z,0.00
2023-01-21T00:19:41.150Z,0.00
2023-01-21T00:20:41.158Z,0.00
2023-01-21T00:21:41.170Z,0.00
2023-01-21T00:22:41.116Z,0.00
2023-01-21T00:23:41.108Z,0.00
2023-01-21T00:24:41.088Z,0.00
2023-01-21T00:25:41.095Z,0.00
2023-01-21T00:26:41.167Z,0.00
2023-01-21T00:27:41.054Z,0.00
2023-01-21T00:28:41.063Z,0.00
2023-01-21T00:29:41.035Z,0.00
2023-01-21T00:30:41.136Z,0.00
2023-01-21T00:31:41.170Z,0.00
2023-01-21T00:32:41.015Z,0.00
2023-01-21T00:33:40.999Z,0.00
2023-01-21T00:34:40.987Z,0.00
2023-01-21T00:35:41.019Z,0.00
2023-01-21T00:36:40.980Z,0.00
2023-01-21T00:37:40.963Z,0.00
2023-01-21T00:38:40.962Z,0.00
2023-01-21T00:39:40.930Z,0.00
2023-01-21T00:40:40.923Z,0.00
2023-01-21T00:41:40.948Z,0.00
2023-01-21T00:42:40.905Z,0.00
2023-01-21T00:43:40.899Z,0.00
2023-01-21T00:44:40.892Z,0.00
2023-01-21T00:45:40.870Z,0.00
2023-01-21T00:46:40.991Z,0.00
2023-01-21T00:47:40.893Z,0.00
2023-01-21T00:48:40.853Z,0.00
2023-01-21T00:49:40.832Z,0.00
2023-01-21T00:50:40.825Z,0.00
2023-01-21T00:51:40.838Z,0.00
2023-01-21T00:52:40.818Z,0.00
2023-01-21T00:53:40.817Z,0.00
2023-01-21T00:54:40.803Z,0.00
2023-01-21T00:55:40.779Z,0.00
2023-01-21T00:56:40.782Z,0.00
2023-01-21T00:57:40.757Z,0.00
2023-01-21T00:58:40.749Z,0.00
2023-01-21T00:59:40.748Z,0.00
2023-01-21T01:00:40.736Z,0.00
2023-01-21T01:01:40.900Z,0.00
2023-01-21T01:02:40.717Z,0.00
2023-01-21T01:03:40.688Z,0.00
2023-01-21T01:04:40.687Z,0.00
2023-01-21T01:05:40.667Z,0.00
2023-01-21T01:06:40.692Z,0.00
2023-01-21T01:07:40.649Z,0.00
2023-01-21T01:08:40.670Z,0.00
2023-01-21T01:09:40.627Z,0.00
2023-01-21T01:10:40.655Z,0.00
2023-01-21T01:11:40.631Z,0.00
2023-01-21T01:12:40.605Z,0.00
2023-01-21T01:13:40.599Z,0.00
2023-01-21T01:14:40.585Z,0.00
2023-01-21T01:15:40.619Z,0.00
2023-01-21T01:16:40.592Z,0.00
2023-01-21T01:17:40.560Z,0.00
2023-01-21T01:18:40.553Z,0.00
2023-01-21T01:19:40.530Z,0.00
2023-01-21T01:20:40.525Z,0.00
2023-01-21T01:21:40.525Z,0.00
2023-01-21T01:22:40.506Z,0.00
2023-01-21T01:23:40.486Z,0.00
2023-01-21T01:24:40.498Z,0.00
2023-01-21T01:25:40.494Z,0.00
2023-01-21T01:26:42.113Z,0.00
2023-01-21T01:27:40.459Z,0.00
2023-01-21T01:28:40.441Z,0.00
2023-01-21T01:29:40.422Z,0.00
2023-01-21T01:30:40.524Z,0.00
2023-01-21T01:31:40.485Z,0.00
2023-01-21T01:32:40.401Z,0.00
2023-01-21T01:33:40.387Z,0.00
2023-01-21T01:34:40.393Z,0.00
2023-01-21T01:35:40.369Z,0.00
2023-01-21T01:36:40.392Z,0.00
2023-01-21T01:37:40.368Z,0.00
2023-01-21T01:38:40.350Z,0.00
2023-01-21T01:39:40.326Z,0.00
2023-01-21T01:40:40.346Z,0.00
2023-01-21T01:41:40.331Z,0.00
2023-01-21T01:42:40.316Z,0.00
2023-01-21T01:43:40.306Z,0.00
2023-01-21T01:44:40.280Z,0.00
2023-01-21T01:45:40.277Z,0.00
2023-01-21T01:46:40.355Z,0.00
2023-01-21T01:47:40.264Z,0.00
2023-01-21T01:48:40.241Z,0.00
2023-01-21T01:49:40.221Z,0.00
2023-01-21T01:50:40.221Z,0.00
2023-01-21T01:51:40.243Z,0.00
2023-01-21T01:52:40.199Z,0.00
2023-01-21T01:53:40.184Z,0.00
2023-01-21T01:54:40.204Z,0.00
2023-01-21T01:55:40.165Z,0.00
2023-01-21T01:56:40.164Z,0.00
2023-01-21T01:57:40.183Z,0.00
2023-01-21T01:58:40.144Z,0.00
2023-01-21T01:59:40.130Z,0.00
2023-01-21T02:00:40.150Z,0.00
2023-01-21T02:01:40.179Z,0.00
2023-01-21T02:02:40.177Z,0.00
2023-01-21T02:03:40.088Z,0.00
2023-01-21T02:04:40.096Z,0.00
2023-01-21T02:05:40.074Z,0.00
2023-01-21T02:06:40.066Z,0.00
2023-01-21T02:07:40.100Z,0.00
2023-01-21T02:08:40.037Z,0.00
2023-01-21T02:09:40.041Z,0.00
2023-01-21T02:10:40.023Z,0.00
2023-01-21T02:11:40.034Z,0.00
2023-01-21T02:12:40.028Z,0.00
2023-01-21T02:13:39.995Z,0.00
2023-01-21T02:14:39.984Z,0.00
2023-01-21T02:15:39.964Z,0.00
2023-01-21T02:16:39.962Z,0.00
2023-01-21T02:17:39.967Z,0.00
2023-01-21T02:18:39.950Z,0.00
2023-01-21T02:19:39.934Z,0.00
2023-01-21T02:20:39.921Z,0.00
2023-01-21T02:21:39.917Z,0.00
2023-01-21T02:22:39.926Z,0.00
2023-01-21T02:23:39.900Z,0.00
2023-01-21T02:24:39.884Z,0.00
2023-01-21T02:25:39.869Z,0.00
2023-01-21T02:26:39.896Z,0.00
2023-01-21T02:27:39.872Z,0.00
2023-01-21T02:28:39.839Z,0.00
2023-01-21T02:29:39.829Z,0.00
2023-01-21T02:30:39.838Z,0.00
2023-01-21T02:31:39.859Z,0.00
2023-01-21T02:32:39.842Z,0.00
2023-01-21T02:33:39.795Z,0.00
2023-01-21T02:34:39.785Z,0.00
2023-01-21T02:35:39.765Z,0.00
2023-01-21T02:36:39.776Z,0.00
2023-01-21T02:37:39.765Z,0.00
2023-01-21T02:38:39.746Z,0.00
2023-01-21T02:39:39.737Z,0.00
2023-01-21T02:40:39.736Z,0.00
2023-01-21T02:41:39.705Z,0.00
2023-01-21T02:42:39.764Z,0.00
2023-01-21T02:43:39.708Z,0.00
2023-01-21T02:44:39.685Z,0.00
2023-01-21T02:45:39.667Z,0.00
2023-01-21T02:46:39.769Z,0.00
2023-01-21T02:47:39.672Z,0.00
2023-01-21T02:48:39.647Z,0.00
2023-01-21T02:49:39.641Z,0.00
2023-01-21T02:50:39.620Z,0.00
2023-01-21T02:51:39.619Z,0.00
2023-01-21T02:52:39.629Z,0.00
2023-01-21T02:53:39.616Z,0.00
2023-01-21T02:54:39.590Z,0.00
2023-01-21T02:55:41.344Z,0.00
2023-01-21T02:56:39.572Z,0.00
2023-01-21T02:57:39.567Z,0.00
2023-01-21T02:58:39.540Z,0.00
2023-01-21T02:59:39.536Z,0.00
2023-01-21T03:00:39.558Z,0.00
2023-01-21T03:01:39.560Z,0.00
2023-01-21T03:02:39.580Z,0.00
2023-01-21T03:03:41.305Z,0.00
2023-01-21T03:04:39.500Z,0.00
2023-01-21T03:05:39.483Z,0.00
2023-01-21T03:06:39.466Z,0.00
2023-01-21T03:07:39.470Z,0.00
2023-01-21T03:08:39.449Z,0.00
2023-01-21T03:09:39.435Z,0.00
2023-01-21T03:10:39.416Z,0.00
2023-01-21T03:11:39.411Z,0.00
2023-01-21T03:12:39.417Z,0.00
2023-01-21T03:13:39.420Z,0.00
2023-01-21T03:14:39.380Z,0.00
2023-01-21T03:15:39.375Z,0.00
2023-01-21T03:16:39.463Z,0.00
2023-01-21T03:17:39.374Z,0.00
2023-01-21T03:18:39.333Z,0.00
2023-01-21T03:19:39.335Z,0.00
2023-01-21T03:20:39.317Z,0.00
2023-01-21T03:21:39.312Z,0.00
2023-01-21T03:22:39.319Z,0.00
2023-01-21T03:23:39.301Z,0.00
2023-01-21T03:24:39.295Z,0.00
2023-01-21T03:25:39.283Z,0.00
2023-01-21T03:26:39.257Z,0.00
2023-01-21T03:27:39.267Z,0.00
2023-01-21T03:28:39.251Z,0.00
2023-01-21T03:29:39.247Z,0.00
2023-01-21T03:30:39.251Z,0.00
2023-01-21T03:31:39.253Z,0.00
2023-01-21T03:32:39.211Z,0.00
2023-01-21T03:33:39.201Z,0.00
2023-01-21T03:34:39.173Z,0.00
2023-01-21T03:35:39.184Z,0.00
2023-01-21T03:36:39.188Z,0.00
2023-01-21T03:37:39.180Z,0.00
2023-01-21T03:38:39.142Z,0.00
2023-01-21T03:39:39.136Z,0.00
2023-01-21T03:40:39.119Z,0.00
2023-01-21T03:41:39.120Z,0.00
2023-01-21T03:42:39.136Z,0.00
2023-01-21T03:43:39.093Z,0.00
2023-01-21T03:44:39.079Z,0.00
2023-01-21T03:45:39.099Z,0.00
2023-01-21T03:46:39.056Z,0.00
2023-01-21T03:47:39.084Z,0.00
2023-01-21T03:48:39.043Z,0.00
2023-01-21T03:49:39.037Z,0.00
2023-01-21T03:50:39.054Z,0.00
2023-01-21T03:51:39.025Z,0.00
2023-01-21T03:52:39.023Z,0.00
2023-01-21T03:53:38.996Z,0.00
2023-01-21T03:54:38.992Z,0.00
2023-01-21T03:55:38.967Z,0.00
2023-01-21T03:56:38.953Z,0.00
2023-01-21T03:57:38.970Z,0.00
2023-01-21T03:58:38.947Z,0.00
2023-01-21T03:59:38.941Z,0.00
2023-01-21T04:00:38.960Z,0.00
2023-01-21T04:01:38.909Z,0.00
2023-01-21T04:02:38.924Z,0.00
2023-01-21T04:03:38.902Z,0.00
2023-01-21T04:04:38.875Z,0.00
2023-01-21T04:05:38.871Z,0.00
2023-01-21T04:06:38.860Z,0.00
2023-01-21T04:07:38.904Z,0.00
2023-01-21T04:08:38.842Z,0.00
2023-01-21T04:09:38.837Z,0.00
2023-01-21T04:10:38.834Z,0.00
2023-01-21T04:11:38.810Z,0.00
2023-01-21T04:12:38.829Z,0.00
2023-01-21T04:13:38.794Z,0.00
2023-01-21T04:14:38.773Z,0.00
2023-01-21T04:15:38.769Z,0.00
2023-01-21T04:16:38.799Z,0.00
2023-01-21T04:17:38.769Z,0.00
2023-01-21T04:18:38.767Z,0.00
2023-01-21T04:19:38.735Z,0.00
2023-01-21T04:20:38.732Z,0.00
2023-01-21T04:21:38.719Z,0.00
2023-01-21T04:22:38.732Z,0.00
2023-01-21T04:23:38.703Z,0.00
2023-01-21T04:24:38.690Z,0.00
2023-01-21T04:25:38.698Z,0.00
2023-01-21T04:26:38.654Z,0.00
2023-01-21T04:27:38.681Z,0.00
2023-01-21T04:28:38.637Z,0.00
2023-01-21T04:29:38.627Z,0.00
2023-01-21T04:30:38.699Z,0.00
2023-01-21T04:31:38.657Z,0.00
2023-01-21T04:32:38.614Z,0.00
2023-01-21T04:33:38.585Z,0.00
2023-01-21T04:34:38.608Z,0.00
2023-01-21T04:35:38.566Z,0.00
2023-01-21T04:36:38.566Z,0.00
2023-01-21T04:37:38.565Z,0.00
2023-01-21T04:38:38.539Z,0.00
2023-01-21T04:39:38.570Z,0.00
2023-01-21T04:40:38.531Z,0.00
2023-01-21T04:41:38.502Z,0.00
2023-01-21T04:42:38.545Z,0.00
2023-01-21T04:43:38.481Z,0.00
2023-01-21T04:44:38.485Z,0.00
2023-01-21T04:45:38.490Z,0.00
2023-01-21T04:46:38.458Z,0.00
2023-01-21T04:47:38.468Z,0.00
2023-01-21T04:48:38.437Z,0.00
2023-01-21T04:49:38.424Z,0.00
2023-01-21T04:50:38.413Z,0.00
2023-01-21T04:51:38.392Z,0.00
2023-01-21T04:52:38.385Z,0.00
2023-01-21T04:53:38.390Z,0.00
2023-01-21T04:54:38.371Z,0.00
2023-01-21T04:55:38.361Z,0.00
2023-01-21T04:56:38.354Z,0.00
2023-01-21T04:57:38.348Z,0.00
2023-01-21T04:58:38.338Z,0.00
2023-01-21T04:59:38.318Z,0.00
2023-01-21T05:00:38.311Z,0.00
2023-01-21T05:01:38.305Z,0.00
2023-01-21T05:02:38.320Z,0.00
2023-01-21T05:03:38.323Z,0.00
2023-01-21T05:04:38.273Z,0.00
2023-01-21T05:05:38.258Z,0.00
2023-01-21T05:06:38.287Z,0.00
2023-01-21T05:07:38.248Z,0.00
2023-01-21T05:08:38.254Z,0.00
2023-01-21T05:09:38.229Z,0.00
2023-01-21T05:10:38.214Z,0.00
2023-01-21T05:11:38.200Z,0.00
2023-01-21T05:12:38.203Z,0.00
2023-01-21T05:13:38.238Z,0.00
2023-01-21T05:14:38.174Z,0.00
2023-01-21T05:15:38.228Z,0.00
2023-01-21T05:16:38.176Z,0.00
2023-01-21T05:17:38.164Z,0.00
2023-01-21T05:18:38.152Z,0.00
2023-01-21T05:19:38.113Z,0.00
2023-01-21T05:20:38.112Z,0.00
2023-01-21T05:21:38.095Z,0.00
2023-01-21T05:22:38.089Z,0.00
2023-01-21T05:23:38.097Z,0.00
2023-01-21T05:24:38.073Z,0.00
2023-01-21T05:25:38.053Z,0.00
2023-01-21T05:26:38.064Z,0.00
2023-01-21T05:27:38.046Z,0.00
2023-01-21T05:28:38.053Z,0.00
2023-01-21T05:29:38.019Z,0.00
2023-01-21T05:30:40.429Z,0.00
2023-01-21T05:31:38.279Z,0.00
2023-01-21T05:32:37.993Z,0.00
2023-01-21T05:33:37.999Z,0.00
2023-01-21T05:34:37.969Z,0.00
2023-01-21T05:35:37.968Z,0.00
2023-01-21T05:36:37.954Z,0.00
2023-01-21T05:37:37.930Z,0.00
2023-01-21T05:38:37.960Z,0.00
2023-01-21T05:39:37.943Z,0.00
2023-01-21T05:40:37.908Z,0.00
2023-01-21T05:41:37.904Z,0.00
2023-01-21T05:42:37.914Z,0.00
2023-01-21T05:43:37.891Z,0.00
2023-01-21T05:44:37.892Z,0.00
2023-01-21T05:45:37.866Z,0.00
2023-01-21T05:46:37.844Z,0.00
2023-01-21T05:47:37.826Z,0.00
2023-01-21T05:48:37.859Z,0.00
2023-01-21T05:49:37.838Z,0.00
2023-01-21T05:50:37.813Z,0.00
2023-01-21T05:51:37.799Z,0.00
2023-01-21T05:52:37.795Z,0.00
2023-01-21T05:53:37.807Z,0.00
2023-01-21T05:54:37.809Z,0.00
2023-01-21T05:55:37.746Z,0.00
2023-01-21T05:56:37.740Z,0.00
2023-01-21T05:57:37.761Z,0.00
2023-01-21T05:58:37.740Z,0.00
2023-01-21T05:59:37.737Z,0.00
2023-01-21T06:00:37.701Z,0.00
2023-01-21T06:01:37.684Z,0.00
2023-01-21T06:02:37.779Z,0.00
2023-01-21T06:03:37.738Z,0.00
2023-01-21T06:04:37.671Z,0.00
2023-01-21T06:05:37.645Z,0.00
2023-01-21T06:06:37.640Z,0.00
2023-01-21T06:07:37.644Z,0.00
2023-01-21T06:08:37.646Z,0.00
2023-01-21T06:09:37.601Z,0.00
2023-01-21T06:10:37.602Z,0.00
2023-01-21T06:11:37.584Z,0.00
2023-01-21T06:12:37.584Z,0.00
2023-01-21T06:13:37.587Z,0.00
2023-01-21T06:14:37.576Z,0.00
2023-01-21T06:15:37.582Z,0.00
2023-01-21T06:16:37.547Z,0.00
2023-01-21T06:17:37.529Z,0.00
2023-01-21T06:18:37.568Z,0.00
2023-01-21T06:19:37.513Z,0.00
2023-01-21T06:20:37.508Z,0.00
2023-01-21T06:21:37.483Z,0.00
2023-01-21T06:22:37.487Z,0.00
2023-01-21T06:23:37.493Z,0.00
2023-01-21T06:24:37.466Z,0.00
2023-01-21T06:25:37.448Z,0.00
2023-01-21T06:26:37.442Z,0.00
2023-01-21T06:27:37.429Z,0.00
2023-01-21T06:28:37.442Z,0.00
2023-01-21T06:29:37.431Z,0.00
2023-01-21T06:30:37.417Z,0.00
2023-01-21T06:31:37.538Z,0.00
2023-01-21T06:32:37.389Z,0.00
2023-01-21T06:33:37.375Z,0.00
2023-01-21T06:34:37.351Z,0.00
2023-01-21T06:35:37.341Z,0.00
2023-01-21T06:36:37.368Z,0.00
2023-01-21T06:37:37.320Z,0.00
2023-01-21T06:38:37.335Z,0.00
2023-01-21T06:39:37.304Z,0.00
2023-01-21T06:40:37.299Z,0.00
2023-01-21T06:41:37.277Z,0.00
2023-01-21T06:42:37.283Z,0.00
2023-01-21T06:43:37.274Z,0.00
2023-01-21T06:44:37.262Z,0.00
2023-01-21T06:45:37.244Z,0.00
2023-01-21T06:46:41.068Z,0.00
2023-01-21T06:47:37.213Z,0.00
2023-01-21T06:48:37.304Z,0.00
2023-01-21T06:49:37.330Z,0.00
2023-01-21T06:50:37.194Z,0.00
2023-01-21T06:51:37.183Z,0.00
2023-01-21T06:52:37.180Z,0.00
2023-01-21T06:53:37.192Z,0.00
2023-01-21T06:54:37.156Z,0.00
2023-01-21T06:55:37.091Z,1.00
2023-01-21T06:56:37.100Z,1.00
2023-01-21T06:57:37.076Z,1.00
2023-01-21T06:58:37.076Z,1.00
2023-01-21T06:59:37.056Z,1.00
2023-01-21T07:00:37.212Z,0.00
2023-01-21T07:01:37.174Z,0.00
2023-01-21T07:02:37.144Z,0.00
2023-01-21T07:03:37.080Z,2.00
2023-01-21T07:04:37.009Z,2.00
2023-01-21T07:05:36.980Z,2.00
2023-01-21T07:06:36.979Z,1.00
2023-01-21T07:07:36.956Z,1.00
2023-01-21T07:08:37.030Z,0.00
2023-01-21T07:09:36.949Z,2.00
2023-01-21T07:10:36.941Z,1.00
2023-01-21T07:11:36.913Z,7.00
2023-01-21T07:12:36.983Z,6.00
2023-01-21T07:13:36.929Z,4.00
2023-01-21T07:14:36.897Z,4.00
2023-01-21T07:15:36.884Z,4.00
2023-01-21T07:16:36.898Z,5.00
2023-01-21T07:17:36.861Z,5.00
2023-01-21T07:18:36.865Z,10.00
2023-01-21T07:19:36.830Z,11.00
2023-01-21T07:20:37.689Z,11.00
2023-01-21T07:21:36.821Z,11.00
2023-01-21T07:22:36.802Z,9.00
2023-01-21T07:23:36.805Z,15.00
2023-01-21T07:24:36.800Z,15.00
2023-01-21T07:25:36.801Z,15.00
2023-01-21T07:26:36.769Z,14.00
2023-01-21T07:27:36.755Z,17.00
2023-01-21T07:28:36.760Z,18.00
2023-01-21T07:29:36.728Z,19.00
2023-01-21T07:30:36.754Z,20.00
2023-01-21T07:31:36.852Z,21.00
2023-01-21T07:32:36.702Z,22.00
2023-01-21T07:33:36.720Z,22.00
2023-01-21T07:34:36.693Z,21.00
2023-01-21T07:35:36.669Z,23.00
2023-01-21T07:36:36.685Z,26.00
2023-01-21T07:37:36.651Z,26.00
2023-01-21T07:38:36.677Z,27.00
2023-01-21T07:39:36.656Z,26.00
2023-01-21T07:40:36.623Z,27.00
2023-01-21T07:41:36.617Z,27.00
2023-01-21T07:42:36.601Z,33.00
2023-01-21T07:43:36.627Z,34.00
2023-01-21T07:44:36.588Z,35.00
2023-01-21T07:45:36.575Z,35.00
2023-01-21T07:46:36.587Z,34.00
2023-01-21T07:47:36.543Z,36.00
2023-01-21T07:48:36.541Z,36.00
2023-01-21T07:49:36.543Z,44.00
2023-01-21T07:50:36.521Z,38.00
2023-01-21T07:51:36.504Z,35.00
2023-01-21T07:52:36.511Z,32.00
2023-01-21T07:53:36.488Z,62.00
2023-01-21T07:54:36.500Z,64.00
2023-01-21T07:55:36.466Z,58.00
2023-01-21T07:56:36.473Z,54.00
2023-01-21T07:57:36.447Z,65.00
2023-01-21T07:58:36.433Z,72.00
2023-01-21T07:59:36.448Z,81.00
2023-01-21T08:00:36.421Z,78.00
2023-01-21T08:01:36.420Z,78.00
2023-01-21T08:02:36.522Z,83.00
2023-01-21T08:03:36.379Z,86.00
2023-01-21T08:04:36.401Z,84.00
2023-01-21T08:05:36.364Z,80.00
2023-01-21T08:06:36.374Z,82.00
2023-01-21T08:07:36.340Z,83.00
2023-01-21T08:08:36.339Z,91.00
2023-01-21T08:09:36.336Z,78.00
2023-01-21T08:10:36.325Z,97.00
2023-01-21T08:11:36.317Z,94.00
2023-01-21T08:12:36.302Z,108.00
2023-01-21T08:13:36.282Z,102.00
2023-01-21T08:14:36.297Z,89.00
2023-01-21T08:15:36.260Z,154.00
2023-01-21T08:16:36.348Z,131.00
2023-01-21T08:17:36.236Z,166.00
2023-01-21T08:18:36.230Z,132.00
2023-01-21T08:19:36.236Z,159.00
2023-01-21T08:20:36.223Z,157.00
2023-01-21T08:21:36.202Z,168.00
2023-01-21T08:22:36.201Z,169.00
2023-01-21T08:23:36.177Z,173.00
2023-01-21T08:24:36.209Z,162.00
2023-01-21T08:25:36.157Z,179.00
2023-01-21T08:26:36.153Z,180.00
2023-01-21T08:27:36.151Z,188.00
2023-01-21T08:28:36.143Z,184.00
2023-01-21T08:29:36.135Z,193.00
2023-01-21T08:30:36.122Z,182.00
2023-01-21T08:31:36.139Z,171.00
2023-01-21T08:32:36.091Z,208.00
2023-01-21T08:33:36.089Z,210.00
2023-01-21T08:34:36.090Z,194.00
2023-01-21T08:35:36.070Z,208.00
2023-01-21T08:36:36.044Z,181.00
2023-01-21T08:37:36.040Z,188.00
2023-01-21T08:38:36.045Z,156.00
2023-01-21T08:39:36.044Z,202.00
2023-01-21T08:40:36.015Z,191.00
2023-01-21T08:41:35.993Z,204.00
2023-01-21T08:42:35.994Z,184.00
2023-01-21T08:43:35.967Z,175.00
2023-01-21T08:44:35.977Z,179.00
2023-01-21T08:45:35.979Z,142.00
2023-01-21T08:46:35.961Z,191.00
2023-01-21T08:47:35.930Z,182.00
2023-01-21T08:48:35.928Z,177.00
2023-01-21T08:49:35.930Z,224.00
2023-01-21T08:50:35.894Z,214.00
2023-01-21T08:51:35.898Z,249.00
2023-01-21T08:52:35.891Z,217.00
2023-01-21T08:53:35.881Z,218.00
2023-01-21T08:54:35.887Z,240.00
2023-01-21T08:55:35.849Z,216.00
2023-01-21T08:56:35.839Z,198.00
2023-01-21T08:57:35.848Z,240.00
2023-01-21T08:58:35.836Z,222.00
2023-01-21T08:59:35.851Z,219.00
2023-01-21T09:00:35.953Z,251.00
2023-01-21T09:01:35.807Z,230.00
2023-01-21T09:02:35.779Z,257.00
2023-01-21T09:03:35.779Z,253.00
2023-01-21T09:04:35.780Z,243.00
2023-01-21T09:05:35.768Z,272.00
2023-01-21T09:06:35.732Z,221.00
2023-01-21T09:07:35.731Z,269.00
2023-01-21T09:08:35.719Z,270.00
2023-01-21T09:09:35.725Z,244.00
2023-01-21T09:10:35.711Z,267.00
2023-01-21T09:11:35.739Z,241.00
2023-01-21T09:12:35.696Z,224.00
2023-01-21T09:13:35.668Z,223.00
2023-01-21T09:14:35.686Z,211.00
2023-01-21T09:15:35.645Z,231.00
2023-01-21T09:16:35.653Z,221.00
2023-01-21T09:17:35.638Z,231.00
2023-01-21T09:18:35.641Z,244.00
2023-01-21T09:19:35.631Z,243.00
2023-01-21T09:20:35.619Z,232.00
2023-01-21T09:21:35.589Z,211.00
2023-01-21T09:22:35.580Z,197.00
2023-01-21T09:23:35.573Z,251.00
2023-01-21T09:24:35.564Z,234.00
2023-01-21T09:25:35.546Z,218.00
2023-01-21T09:26:35.564Z,234.00
2023-01-21T09:27:35.528Z,288.00
2023-01-21T09:28:35.526Z,257.00
2023-01-21T09:29:35.534Z,226.00
2023-01-21T09:30:35.534Z,259.00
2023-01-21T09:31:35.524Z,309.00
2023-01-21T09:32:35.578Z,303.00
2023-01-21T09:33:37.654Z,239.00
2023-01-21T09:34:36.527Z,327.00
2023-01-21T09:35:39.773Z,293.00
2023-01-21T09:36:36.250Z,271.00
2023-01-21T09:37:35.585Z,252.00
2023-01-21T09:38:35.525Z,276.00
2023-01-21T09:39:35.441Z,274.00
2023-01-21T09:40:35.391Z,219.00
2023-01-21T09:41:35.392Z,259.00
2023-01-21T09:42:35.387Z,256.00
2023-01-21T09:43:35.383Z,223.00
2023-01-21T09:44:35.376Z,154.00
2023-01-21T09:45:35.371Z,221.00
2023-01-21T09:46:35.351Z,304.00
2023-01-21T09:47:35.339Z,298.00
2023-01-21T09:48:35.311Z,283.00
2023-01-21T09:49:35.331Z,220.00
2023-01-21T09:50:35.296Z,271.00
2023-01-21T09:51:35.283Z,239.00
2023-01-21T09:52:35.268Z,231.00
2023-01-21T09:53:35.258Z,218.00
2023-01-21T09:54:35.274Z,204.00
2023-01-21T09:55:35.243Z,222.00
2023-01-21T09:56:35.229Z,229.00
2023-01-21T09:57:35.224Z,237.00
2023-01-21T09:58:35.306Z,291.00
2023-01-21T09:59:35.367Z,384.00
2023-01-21T10:00:35.199Z,389.00
2023-01-21T10:01:35.188Z,318.00
2023-01-21T10:02:35.162Z,140.00
2023-01-21T10:03:35.159Z,395.00
2023-01-21T10:04:35.273Z,419.00
2023-01-21T10:05:35.134Z,334.00
2023-01-21T10:06:35.154Z,379.00
2023-01-21T10:07:35.139Z,278.00
2023-01-21T10:08:35.100Z,301.00
2023-01-21T10:09:35.113Z,341.00
2023-01-21T10:10:35.339Z,260.00
2023-01-21T10:11:35.094Z,328.00
2023-01-21T10:12:35.057Z,345.00
2023-01-21T10:13:35.071Z,414.00
2023-01-21T10:14:35.045Z,252.00
2023-01-21T10:15:35.052Z,321.00
2023-01-21T10:16:35.091Z,353.00
2023-01-21T10:17:35.064Z,267.00
2023-01-21T10:18:34.998Z,300.00
2023-01-21T10:19:34.991Z,308.00
2023-01-21T10:20:35.000Z,255.00
2023-01-21T10:21:34.995Z,382.00
2023-01-21T10:22:34.991Z,319.00
2023-01-21T10:23:34.994Z,312.00
2023-01-21T10:24:34.934Z,262.00
2023-01-21T10:25:34.950Z,330.00
2023-01-21T10:26:34.921Z,295.00
2023-01-21T10:27:34.909Z,328.00
2023-01-21T10:28:34.896Z,267.00
2023-01-21T10:29:34.899Z,253.00
2023-01-21T10:30:35.046Z,273.00
2023-01-21T10:31:35.094Z,422.00
2023-01-21T10:32:34.909Z,304.00
2023-01-21T10:33:34.847Z,370.00
2023-01-21T10:34:34.835Z,293.00
2023-01-21T10:35:34.852Z,326.00
2023-01-21T10:36:35.449Z,293.00
2023-01-21T10:37:34.800Z,310.00
2023-01-21T10:38:35.451Z,293.00
2023-01-21T10:39:34.815Z,303.00
2023-01-21T10:40:34.795Z,306.00
2023-01-21T10:41:34.775Z,261.00
2023-01-21T10:42:34.749Z,279.00
2023-01-21T10:43:34.849Z,270.00
2023-01-21T10:44:34.759Z,290.00
2023-01-21T10:45:34.752Z,285.00
2023-01-21T10:46:34.766Z,294.00
2023-01-21T10:47:34.747Z,305.00
2023-01-21T10:48:34.706Z,298.00
2023-01-21T10:49:34.687Z,328.00
2023-01-21T10:50:34.687Z,281.00
2023-01-21T10:51:34.673Z,230.00
2023-01-21T10:52:34.662Z,426.00
2023-01-21T10:53:34.644Z,395.00
2023-01-21T10:54:34.642Z,335.00
2023-01-21T10:55:34.658Z,302.00
2023-01-21T10:56:34.722Z,313.00
2023-01-21T10:57:34.600Z,389.00
2023-01-21T10:58:34.589Z,416.00
2023-01-21T10:59:34.580Z,454.00
2023-01-21T11:00:34.606Z,378.00
2023-01-21T11:01:34.713Z,591.00
2023-01-21T11:02:34.604Z,479.00
2023-01-21T11:03:34.545Z,544.00
2023-01-21T11:04:34.516Z,575.00
2023-01-21T11:05:34.545Z,602.00
2023-01-21T11:06:34.522Z,823.00
2023-01-21T11:07:34.498Z,691.00
2023-01-21T11:08:34.529Z,547.00
2023-01-21T11:09:34.489Z,520.00
2023-01-21T11:10:34.485Z,499.00
2023-01-21T11:11:34.467Z,631.00
2023-01-21T11:12:34.470Z,560.00
2023-01-21T11:13:34.515Z,572.00
2023-01-21T11:14:34.465Z,637.00
2023-01-21T11:15:34.480Z,640.00
2023-01-21T11:16:34.408Z,594.00
2023-01-21T11:17:34.397Z,781.00
2023-01-21T11:18:34.378Z,788.00
2023-01-21T11:19:34.411Z,734.00
2023-01-21T11:20:34.383Z,674.00
2023-01-21T11:21:34.363Z,657.00
2023-01-21T11:22:34.350Z,608.00
2023-01-21T11:23:34.342Z,666.00
2023-01-21T11:24:34.341Z,663.00
2023-01-21T11:25:34.339Z,606.00
2023-01-21T11:26:34.306Z,687.00
2023-01-21T11:27:34.310Z,701.00
2023-01-21T11:28:34.290Z,655.00
2023-01-21T11:29:34.278Z,687.00
2023-01-21T11:30:49.553Z,740.00
2023-01-21T11:31:34.338Z,724.00
2023-01-21T11:32:34.249Z,787.00
2023-01-21T11:33:34.245Z,752.00
2023-01-21T11:34:34.215Z,805.00
2023-01-21T11:35:34.236Z,761.00
2023-01-21T11:36:34.214Z,701.00
2023-01-21T11:37:34.189Z,779.00
2023-01-21T11:38:34.217Z,788.00
2023-01-21T11:39:34.174Z,730.00
2023-01-21T11:40:34.171Z,810.00
2023-01-21T11:41:34.198Z,728.00
2023-01-21T11:42:34.135Z,744.00
2023-01-21T11:43:34.134Z,701.00
2023-01-21T11:44:34.140Z,708.00
2023-01-21T11:45:34.183Z,745.00
2023-01-21T11:46:34.197Z,760.00
2023-01-21T11:47:36.065Z,688.00
2023-01-21T11:48:34.123Z,747.00
2023-01-21T11:49:34.079Z,704.00
2023-01-21T11:50:34.065Z,758.00
2023-01-21T11:51:34.060Z,769.00
2023-01-21T11:52:34.031Z,702.00
2023-01-21T11:53:34.029Z,695.00
2023-01-21T11:54:34.009Z,711.00
2023-01-21T11:55:34.035Z,690.00
2023-01-21T11:56:33.997Z,695.00
2023-01-21T11:57:33.993Z,662.00
2023-01-21T11:58:33.991Z,673.00
2023-01-21T11:59:34.401Z,612.00
2023-01-21T12:00:33.984Z,654.00
2023-01-21T12:01:33.959Z,599.00
2023-01-21T12:02:33.966Z,682.00
2023-01-21T12:03:34.026Z,627.00
2023-01-21T12:04:33.909Z,674.00
2023-01-21T12:05:33.928Z,649.00
2023-01-21T12:06:36.682Z,655.00
2023-01-21T12:07:33.910Z,663.00
2023-01-21T12:08:33.868Z,661.00
2023-01-21T12:09:33.858Z,598.00
2023-01-21T12:10:33.861Z,572.00
2023-01-21T12:11:33.886Z,583.00
2023-01-21T12:12:33.834Z,578.00
2023-01-21T12:13:33.829Z,576.00
2023-01-21T12:14:33.824Z,561.00
2023-01-21T12:15:33.819Z,579.00
2023-01-21T12:16:33.797Z,575.00
2023-01-21T12:17:33.853Z,560.00
2023-01-21T12:18:33.789Z,584.00
2023-01-21T12:19:33.768Z,574.00
2023-01-21T12:20:33.788Z,522.00
2023-01-21T12:21:33.755Z,559.00
2023-01-21T12:22:33.729Z,541.00
2023-01-21T12:23:33.725Z,545.00
2023-01-21T12:24:33.713Z,484.00
2023-01-21T12:25:33.715Z,576.00
2023-01-21T12:26:33.736Z,575.00
2023-01-21T12:27:33.694Z,586.00
2023-01-21T12:28:33.689Z,583.00
2023-01-21T12:29:33.669Z,638.00
2023-01-21T12:30:33.769Z,577.00
2023-01-21T12:31:33.706Z,630.00
2023-01-21T12:32:33.645Z,595.00
2023-01-21T12:33:33.632Z,618.00
2023-01-21T12:34:33.620Z,687.00
2023-01-21T12:35:33.622Z,645.00
2023-01-21T12:36:33.583Z,609.00
2023-01-21T12:37:33.583Z,552.00
2023-01-21T12:38:33.572Z,572.00
2023-01-21T12:39:33.574Z,644.00
2023-01-21T12:40:33.564Z,596.00
2023-01-21T12:41:33.559Z,618.00
2023-01-21T12:42:33.519Z,623.00
2023-01-21T12:43:33.527Z,611.00
2023-01-21T12:44:33.515Z,590.00
2023-01-21T12:45:33.490Z,547.00
2023-01-21T12:46:33.548Z,591.00
2023-01-21T12:47:33.481Z,616.00
2023-01-21T12:48:33.456Z,566.00
2023-01-21T12:49:33.463Z,556.00
2023-01-21T12:50:33.447Z,554.00
2023-01-21T12:51:33.463Z,547.00
2023-01-21T12:52:33.435Z,526.00
2023-01-21T12:53:33.404Z,527.00
2023-01-21T12:54:33.429Z,540.00
2023-01-21T12:55:34.587Z,544.00
2023-01-21T12:56:33.397Z,531.00
2023-01-21T12:57:33.385Z,536.00